createdAt,value
2019-05-15T00:00:51.768Z,1.00
2019-05-15T00:15:50.971Z,1.20
2019-05-15T00:30:51.390Z,0.95
2019-05-15T00:45:49.434Z,1.00
2019-05-15T01:00:55.362Z,0.90
2019-05-15T01:15:49.680Z,0.95
2019-05-15T01:30:52.053Z,0.80
2019-05-15T01:45:49.180Z,0.90
2019-05-15T02:00:59.540Z,0.90
2019-05-15T02:15:50.015Z,1.20
2019-05-15T02:30:50.733Z,1.15
2019-05-15T02:45:51.383Z,1.27
2019-05-15T03:00:53.256Z,1.27
2019-05-15T03:15:59.495Z,1.20
2019-05-15T03:31:14.623Z,2.00
2019-05-15T03:45:49.507Z,1.27
2019-05-15T04:00:50.102Z,2.60
2019-05-15T04:15:50.284Z,5.70
2019-05-15T04:30:49.647Z,2.90
2019-05-15T04:45:50.014Z,2.72
2019-05-15T05:00:54.281Z,2.80
2019-05-15T05:15:50.654Z,2.75
2019-05-15T05:30:51.245Z,3.83
2019-05-15T05:45:49.694Z,4.05
2019-05-15T06:00:50.820Z,9.68
2019-05-15T06:15:49.825Z,9.10
2019-05-15T06:31:00.355Z,10.10
2019-05-15T06:45:51.171Z,9.45
2019-05-15T07:00:49.943Z,6.12
2019-05-15T07:15:50.424Z,4.05
2019-05-15T07:30:52.536Z,3.75
2019-05-15T07:45:55.321Z,3.60
2019-05-15T08:00:49.729Z,3.90
2019-05-15T08:15:49.155Z,6.80
2019-05-15T08:30:50.181Z,5.42
2019-05-15T08:45:50.100Z,4.22
2019-05-15T09:00:52.318Z,7.20
2019-05-15T09:15:55.389Z,6.10
2019-05-15T09:30:51.262Z,6.15
2019-05-15T09:45:49.413Z,6.50
2019-05-15T10:00:53.032Z,6.05
2019-05-15T10:15:51.396Z,7.05
2019-05-15T10:30:50.023Z,7.37
2019-05-15T10:45:50.195Z,7.60
2019-05-15T11:00:49.787Z,8.53
2019-05-15T11:15:49.770Z,8.10
2019-05-15T11:30:51.219Z,8.03
2019-05-15T11:45:58.833Z,8.48
2019-05-15T12:00:57.814Z,8.73
2019-05-15T12:15:51.409Z,11.48
2019-05-15T12:30:49.932Z,9.40
2019-05-15T13:00:50.836Z,10.75
2019-05-15T13:15:49.111Z,10.60
2019-05-15T13:30:49.209Z,9.75
2019-05-15T13:45:50.079Z,9.33
2019-05-15T14:00:49.945Z,12.50
2019-05-15T14:15:49.365Z,12.53
2019-05-15T14:30:49.282Z,12.73
2019-05-15T21:30:55.326Z,14.20
2019-05-15T21:45:58.652Z,12.85
2019-05-15T22:00:54.854Z,12.30
2019-05-15T22:30:58.393Z,10.75
2019-05-15T22:45:58.826Z,12.03
2019-05-15T23:00:59.736Z,9.53
